Flight Number: AVA2273 Duration: 1:15
Departure: Edmonton Intl (CYEG) at 23:45 Distance: 325.752 Nm
Arrival: Prince George (CYXS) at 01:00 Equipment: ATR72

Weather Information
Edmonton International, Alta., Canada (CYEG) 53-18N 113-35W 723M May 30, 2020 - 05:00 AM EDT / 2020.05.30 0900 UTC
Wind: from the SE (130 degrees) at 9 MPH (8 KT):0
Visibility: 20 mile(s):0
Sky conditions: overcast Temperature: 53 F (12 C) Dew Point: 41 F (5 C) Relative Humidity: 62% Pressure (altimeter): 30.12 in. Hg (1019 hPa)
ob: CYEG 300900Z 13008KT 20SM BKN090 BKN140 OVC250 12/05 A3012 RMK AC5AC2CI1 SLP206 DENSITY ALT 2400FT cycle: 9
Sunrise: 11:18 Sunset: 03:45 (UTC)

Prince George, B. C., Canada (CYXS) 53-53N 122-41W 691M May 30, 2020 - 05:00 AM EDT / 2020.05.30 0900 UTC
Wind: from the N (350 degrees) at 6 MPH (5 KT):0
Visibility: 9 mile(s):0
Sky conditions: clear Temperature: 51 F (11 C) Dew Point: 48 F (9 C) Relative Humidity: 87% Pressure (altimeter): 29.9 in. Hg (1012 hPa)
ob: CYXS 300900Z AUTO 35005KT 9SM CLR 11/09 A2990 RMK SLP130 DENSITY ALT 2300FT cycle: 9
Sunrise: 11:51 Sunset: 04:25 (UTC)

TAF:2020/05/30 07:39 TAF CYXS 300638Z 3007/3019 01012KT P6SM BKN080 BKN200 TEMPO 3007/3009 P6SM -SHRA VCTS BKN050CB PROB40 3007/3009 VRB15G25KT 5SM TSRA BKN050CB FM300900 01008KT P6SM SCT080 BKN120 TEMPO 3009/3012 BKN080 FM301200 01008KT P6SM BKN080 TEMPO 3012/3019 P6SM -SHRA RMK FCST BASED ON AUTO OBS. NXT FCST BY 301300Z

This route has never been flown.

Route map